Aviation Digital Data Service (ADDS)

Output produced by METARs form (1555 UTC 03 December 2021)
found at http://aviationweather.gov/metar/data/
 
TAF LEMH 031400Z 0315/0415 35010KT 9999 SCT040 TX17/0412Z TN10/0406Z 
     TEMPO 0315/0316 35015G25KT 
     BECMG 0315/0317 VRB04KT 
     BECMG 0321/0323 27010KT